LLBG

Ben Gurion International Airport

Tel Aviv, Israel
TAF LLBG 181706Z 1818/1918 VRB03KT CAVOK BECMG 1820/1822 14006KT BECMG 1907/1909 22012KT 9999 SCT035 TX20/1912Z TN11/1904Z
Issued Valid From Valid To
Dec-18 @ 17:06 UTC
(6 hours ago)
Dec-18 @ 18:00 UTC
(5 hours ago)
Dec-19 @ 18:00 UTC
(in 19 hours)
Expired Click to View Dec-18 @ 18:00 to Dec-18 @ 20:00
TAF LLBG 181706Z 1818/1918 VRB03KT CAVOK
Wind Visibility Clouds Conditions
Variable at 3 knots 10,000+ meters
  • No significant clouds
Becoming Dec-18 @ 20:00 to Dec-19 @ 07:00
BECMG 1820/1822 14006KT
Wind Visibility Clouds Conditions
140° at 6 knots 10,000+ meters
  • No significant clouds
Becoming Dec-19 @ 07:00 to Dec-19 @ 18:00
BECMG 1907/1909 22012KT 9999 SCT035 TX20/1912Z TN11/1904Z
Wind Visibility Clouds Conditions
220° at 12 knots 10,000+ meters
  • Scattered at 3,500' AGL
TAF LLBG 181706Z 1818/1918 VRB03KT CAVOK BECMG 1820/1822 14006KT BECMG 1907/1909 22012KT 9999 SCT035 TX20/1912Z TN11/1904Z
Issued Dec-18 @ 17:06 UTC
(6 hours ago)
Valid From Dec-18 @ 18:00 UTC
(5 hours ago)
Valid To Dec-19 @ 18:00 UTC
(in 19 hours)
Dec-18 @ 18:00 - Dec-18 @ 20:00
Wind Visibility
Variable at 3 knots 10,000+ meters
Clouds
  • No significant clouds
Conditions
Becoming Dec-18 @ 20:00 - Dec-19 @ 07:00
Wind Visibility
140° at 6 knots 10,000+ meters
Clouds
  • No significant clouds
Conditions
Becoming Dec-19 @ 07:00 - Dec-19 @ 18:00
Wind Visibility
220° at 12 knots 10,000+ meters
Clouds
  • Scattered at 3,500' AGL
Conditions